createdAt,value
2023-01-28T00:00:37.231Z,2.71
2023-01-28T00:03:04.119Z,2.67
2023-01-28T00:05:31.295Z,2.80
2023-01-28T00:07:58.121Z,2.69
2023-01-28T00:10:24.937Z,2.74
2023-01-28T00:12:51.819Z,2.68
2023-01-28T00:15:18.662Z,2.69
2023-01-28T00:17:45.508Z,2.79
2023-01-28T00:20:12.657Z,2.71
2023-01-28T00:22:39.520Z,2.69
2023-01-28T00:25:06.451Z,2.65
2023-01-28T00:27:33.279Z,2.66
2023-01-28T00:30:00.109Z,2.82
2023-01-28T00:32:27.053Z,2.67
2023-01-28T00:34:53.893Z,2.65
2023-01-28T00:37:20.693Z,2.67
2023-01-28T00:39:47.504Z,2.64
2023-01-28T00:42:14.329Z,2.69
2023-01-28T00:44:41.155Z,2.61
2023-01-28T00:47:08.066Z,2.44
2023-01-28T00:49:34.949Z,2.44
2023-01-28T00:52:02.064Z,2.39
2023-01-28T00:54:28.889Z,2.42
2023-01-28T00:56:55.703Z,2.35
2023-01-28T00:59:22.575Z,2.32
2023-01-28T01:01:49.502Z,2.25
2023-01-28T01:04:26.338Z,2.24
2023-01-28T01:06:53.610Z,2.20
2023-01-28T01:09:20.450Z,2.14
2023-01-28T01:11:47.301Z,2.03
2023-01-28T01:14:14.121Z,1.99
2023-01-28T01:16:40.900Z,1.93
2023-01-28T01:19:13.015Z,1.91
2023-01-28T01:21:39.819Z,1.92
2023-01-28T01:24:06.912Z,1.88
2023-01-28T01:26:33.764Z,1.84
2023-01-28T01:29:00.615Z,1.99
2023-01-28T01:31:27.527Z,1.89
2023-01-28T01:33:54.405Z,1.84
2023-01-28T01:36:22.039Z,1.87
2023-01-28T01:38:53.180Z,1.88
2023-01-28T01:41:24.816Z,1.91
2023-01-28T01:43:53.319Z,1.86
2023-01-28T01:46:29.030Z,1.88
2023-01-28T01:48:57.330Z,1.94
2023-01-28T01:51:27.738Z,1.88
2023-01-28T01:53:56.520Z,1.91
2023-01-28T01:56:26.239Z,1.33
2023-01-28T01:58:55.409Z,1.74
2023-01-28T02:01:24.430Z,1.71
2023-01-28T02:03:56.379Z,1.70
2023-01-28T02:06:23.823Z,1.68
2023-01-28T02:08:53.813Z,1.75
2023-01-28T02:11:21.525Z,1.68
2023-01-28T02:13:50.196Z,1.87
2023-01-28T02:16:17.249Z,1.73
2023-01-28T02:18:44.828Z,1.88
2023-01-28T02:21:30.387Z,1.86
2023-01-28T02:24:10.097Z,1.87
2023-01-28T02:26:36.932Z,1.83
2023-01-28T02:29:08.182Z,1.86
2023-01-28T02:31:43.720Z,1.84
2023-01-28T02:34:23.396Z,1.95
2023-01-28T02:36:50.206Z,1.86
2023-01-28T02:39:20.334Z,1.86
2023-01-28T02:41:50.642Z,1.82
2023-01-28T02:44:17.499Z,1.82
2023-01-28T02:47:03.157Z,1.87
2023-01-28T02:49:51.337Z,2.03
2023-01-28T02:52:55.894Z,1.81
2023-01-28T02:55:43.097Z,1.74
2023-01-28T02:58:10.186Z,1.74
2023-01-28T03:00:46.310Z,1.83
2023-01-28T03:03:13.127Z,1.72
2023-01-28T03:06:03.529Z,1.71
2023-01-28T03:08:52.707Z,1.63
2023-01-28T03:11:38.711Z,1.72
2023-01-28T03:14:27.235Z,1.53
2023-01-28T03:17:15.743Z,1.63
2023-01-28T03:20:01.374Z,1.51
2023-01-28T03:22:51.438Z,1.66
2023-01-28T03:25:39.607Z,1.54
2023-01-28T03:28:28.636Z,1.61
2023-01-28T03:31:27.596Z,1.60
2023-01-28T03:34:17.003Z,1.57
2023-01-28T03:36:50.875Z,1.59
2023-01-28T03:39:35.247Z,1.73
2023-01-28T03:42:11.244Z,1.59
2023-01-28T03:44:55.101Z,1.87
2023-01-28T03:47:23.711Z,1.62
2023-01-28T03:49:52.418Z,1.70
2023-01-28T03:52:22.661Z,1.64
2023-01-28T03:54:49.861Z,1.59
2023-01-28T03:57:17.652Z,1.55
2023-01-28T03:59:44.490Z,1.60
2023-01-28T04:02:12.436Z,1.60
2023-01-28T04:04:39.683Z,1.57
2023-01-28T04:07:10.687Z,1.67
2023-01-28T04:10:01.850Z,1.54
2023-01-28T04:12:49.819Z,1.57
2023-01-28T04:15:17.623Z,1.61
2023-01-28T04:17:46.609Z,1.60
2023-01-28T04:20:18.781Z,1.63
2023-01-28T04:22:45.581Z,1.47
2023-01-28T04:25:14.332Z,1.40
2023-01-28T04:27:41.255Z,1.51
2023-01-28T04:30:16.704Z,1.54
2023-01-28T04:33:03.807Z,1.47
2023-01-28T04:36:03.131Z,1.55
2023-01-28T04:38:40.177Z,1.43
2023-01-28T04:41:27.223Z,1.45
2023-01-28T04:43:56.704Z,1.40
2023-01-28T04:46:56.077Z,1.52
2023-01-28T04:49:44.327Z,1.65
2023-01-28T04:52:13.657Z,1.67
2023-01-28T04:55:16.130Z,1.62
2023-01-28T04:57:43.373Z,1.66
2023-01-28T05:00:10.535Z,1.54
2023-01-28T05:02:37.477Z,1.66
2023-01-28T05:05:06.095Z,1.53
2023-01-28T05:07:43.021Z,1.62
2023-01-28T05:10:10.392Z,1.66
2023-01-28T05:12:37.443Z,1.69
2023-01-28T05:15:07.693Z,1.50
2023-01-28T05:17:34.546Z,1.56
2023-01-28T05:20:01.705Z,1.49
2023-01-28T05:22:29.407Z,1.44
2023-01-28T05:25:18.076Z,1.52
2023-01-28T05:27:50.085Z,1.58
2023-01-28T05:30:17.602Z,1.65
2023-01-28T05:32:44.597Z,1.54
2023-01-28T05:35:13.083Z,1.48
2023-01-28T05:37:40.406Z,1.46
2023-01-28T05:40:07.577Z,1.50
2023-01-28T05:42:34.555Z,1.50
2023-01-28T05:45:20.472Z,1.40
2023-01-28T05:48:01.735Z,1.44
2023-01-28T05:50:51.110Z,1.28
2023-01-28T05:53:20.897Z,1.34
2023-01-28T05:55:49.759Z,1.34
2023-01-28T05:58:17.710Z,1.43
2023-01-28T06:00:44.581Z,1.43
2023-01-28T06:03:12.475Z,1.48
2023-01-28T06:05:39.573Z,1.47
2023-01-28T06:08:07.893Z,1.44
2023-01-28T06:10:35.830Z,1.45
2023-01-28T06:13:02.722Z,1.45
2023-01-28T06:15:44.100Z,1.50
2023-01-28T06:18:22.509Z,1.28
2023-01-28T06:20:50.748Z,1.49
2023-01-28T06:23:17.994Z,1.47
2023-01-28T06:25:44.805Z,1.45
2023-01-28T06:28:14.067Z,1.26
2023-01-28T06:30:41.463Z,1.30
2023-01-28T06:33:08.451Z,1.33
2023-01-28T06:35:35.705Z,1.26
2023-01-28T06:38:04.497Z,1.35
2023-01-28T06:40:31.461Z,1.26
2023-01-28T06:42:58.254Z,1.18
2023-01-28T06:45:25.222Z,1.18
2023-01-28T06:47:52.016Z,1.29
2023-01-28T06:50:18.919Z,1.29
2023-01-28T06:52:45.714Z,1.25
2023-01-28T06:55:12.567Z,1.20
2023-01-28T06:57:40.155Z,1.22
2023-01-28T07:00:08.388Z,1.27
2023-01-28T07:02:35.225Z,1.23
2023-01-28T07:05:02.582Z,1.30
2023-01-28T07:07:29.383Z,1.23
2023-01-28T07:09:56.234Z,1.10
2023-01-28T07:12:23.032Z,1.25
2023-01-28T07:14:49.904Z,1.17
2023-01-28T07:17:16.795Z,1.14
2023-01-28T07:19:43.661Z,1.14
2023-01-28T07:22:10.434Z,1.25
2023-01-28T07:24:37.242Z,1.13
2023-01-28T07:27:04.660Z,1.07
2023-01-28T07:29:31.536Z,1.31
2023-01-28T07:31:58.453Z,1.16
2023-01-28T07:34:25.365Z,1.24
2023-01-28T07:36:52.217Z,1.29
2023-01-28T07:39:21.142Z,1.41
2023-01-28T07:41:47.948Z,1.35
2023-01-28T07:44:31.341Z,1.33
2023-01-28T07:46:58.165Z,1.46
2023-01-28T07:49:24.997Z,1.37
2023-01-28T07:51:51.785Z,1.43
2023-01-28T07:54:18.601Z,1.28
2023-01-28T07:56:46.766Z,1.10
2023-01-28T07:59:13.607Z,1.25
2023-01-28T08:01:40.465Z,1.21
2023-01-28T08:04:07.383Z,1.23
2023-01-28T08:06:37.785Z,0.95
2023-01-28T08:09:06.118Z,0.91
2023-01-28T08:11:33.163Z,1.07
2023-01-28T08:14:00.351Z,1.14
2023-01-28T08:16:27.644Z,1.16
2023-01-28T08:18:54.841Z,1.12
2023-01-28T08:21:21.643Z,1.38
2023-01-28T08:23:48.678Z,1.33
2023-01-28T08:26:15.465Z,1.47
2023-01-28T08:28:42.306Z,1.41
2023-01-28T08:31:09.362Z,1.54
2023-01-28T08:33:36.222Z,1.40
2023-01-28T08:36:04.200Z,1.40
2023-01-28T08:38:31.079Z,1.37
2023-01-28T08:40:58.917Z,1.47
2023-01-28T08:43:25.778Z,1.57
2023-01-28T08:45:52.753Z,1.61
2023-01-28T08:48:19.586Z,1.65
2023-01-28T08:50:46.446Z,1.53
2023-01-28T08:53:14.529Z,1.54
2023-01-28T08:55:41.359Z,1.57
2023-01-28T08:58:10.895Z,1.74
2023-01-28T09:00:37.921Z,1.80
2023-01-28T09:03:06.283Z,1.53
2023-01-28T09:05:36.363Z,1.56
2023-01-28T09:08:03.855Z,1.66
2023-01-28T09:10:30.673Z,1.91
2023-01-28T09:12:57.605Z,1.90
2023-01-28T09:15:24.980Z,1.87
2023-01-28T09:17:57.180Z,1.23
2023-01-28T09:20:24.028Z,2.15
2023-01-28T09:22:51.023Z,2.25
2023-01-28T09:25:17.947Z,2.24
2023-01-28T09:27:44.850Z,2.22
2023-01-28T09:30:14.089Z,2.10
2023-01-28T09:32:41.201Z,2.20
2023-01-28T09:35:08.575Z,2.19
2023-01-28T09:37:35.419Z,1.99
2023-01-28T09:40:02.969Z,1.97
2023-01-28T09:42:53.284Z,2.00
2023-01-28T09:45:20.098Z,1.65
2023-01-28T09:47:55.833Z,1.87
2023-01-28T09:50:25.700Z,1.93
2023-01-28T09:52:55.723Z,1.90
2023-01-28T09:55:22.618Z,1.91
2023-01-28T09:57:53.391Z,1.88
2023-01-28T10:00:26.458Z,1.87
2023-01-28T10:03:19.615Z,1.72
2023-01-28T10:06:03.541Z,1.94
2023-01-28T10:08:45.590Z,1.69
2023-01-28T10:11:31.104Z,1.91
2023-01-28T10:14:24.054Z,1.74
2023-01-28T10:16:54.985Z,1.87
2023-01-28T10:19:30.796Z,1.98
2023-01-28T10:22:00.235Z,2.02
2023-01-28T10:24:33.789Z,1.91
2023-01-28T10:27:00.733Z,1.52
2023-01-28T10:29:31.087Z,1.70
2023-01-28T10:32:05.256Z,1.67
2023-01-28T10:34:32.120Z,1.74
2023-01-28T10:36:58.970Z,1.47
2023-01-28T10:39:26.292Z,1.41
2023-01-28T10:41:58.224Z,1.55
2023-01-28T10:44:25.614Z,1.64
2023-01-28T10:46:53.924Z,1.82
2023-01-28T10:49:26.492Z,1.96
2023-01-28T10:51:53.406Z,2.13
2023-01-28T10:54:21.968Z,2.20
2023-01-28T10:56:50.285Z,1.96
2023-01-28T10:59:19.953Z,1.73
2023-01-28T11:01:52.070Z,1.68
2023-01-28T11:04:25.127Z,1.60
2023-01-28T11:06:56.356Z,1.65
2023-01-28T11:09:24.844Z,1.77
2023-01-28T11:11:51.718Z,1.66
2023-01-28T11:14:25.914Z,1.54
2023-01-28T11:16:54.391Z,1.49
2023-01-28T11:21:58.040Z,1.31
2023-01-28T11:24:30.146Z,1.47
2023-01-28T11:26:58.710Z,1.45
2023-01-28T11:29:31.099Z,1.63
2023-01-28T11:31:58.590Z,1.61
2023-01-28T11:34:27.174Z,1.40
2023-01-28T11:36:55.687Z,1.62
2023-01-28T11:39:25.828Z,1.64
2023-01-28T11:41:53.352Z,1.64
2023-01-28T11:44:27.149Z,1.88
2023-01-28T11:47:12.910Z,1.71
2023-01-28T11:49:50.742Z,1.65
2023-01-28T11:52:20.651Z,1.96
2023-01-28T11:55:07.266Z,1.94
2023-01-28T11:57:38.979Z,1.91
2023-01-28T12:00:12.470Z,1.79
2023-01-28T12:02:46.729Z,1.72
2023-01-28T12:05:30.757Z,1.87
2023-01-28T12:08:18.718Z,1.93
2023-01-28T12:11:08.861Z,2.08
2023-01-28T12:14:01.210Z,2.07
2023-01-28T12:16:31.174Z,2.06
2023-01-28T12:19:04.759Z,1.87
2023-01-28T12:21:41.374Z,1.58
2023-01-28T12:24:14.585Z,1.77
2023-01-28T12:26:59.911Z,1.86
2023-01-28T12:29:36.198Z,2.09
2023-01-28T12:32:21.983Z,2.06
2023-01-28T12:35:08.029Z,1.73
2023-01-28T12:37:50.645Z,1.70
2023-01-28T12:40:40.188Z,1.58
2023-01-28T12:43:11.930Z,1.83
2023-01-28T12:45:40.588Z,1.54
2023-01-28T12:48:11.000Z,1.90
2023-01-28T12:51:07.212Z,1.72
2023-01-28T12:53:40.495Z,1.86
2023-01-28T12:56:07.541Z,1.82
2023-01-28T12:58:39.615Z,1.82
2023-01-28T13:01:09.190Z,2.07
2023-01-28T13:03:56.382Z,2.04
2023-01-28T13:06:33.569Z,1.95
2023-01-28T13:09:03.247Z,1.98
2023-01-28T13:11:33.212Z,2.14
2023-01-28T13:14:00.599Z,2.14
2023-01-28T13:16:36.048Z,2.10
2023-01-28T13:19:05.200Z,2.12
2023-01-28T13:21:40.069Z,2.07
2023-01-28T13:24:12.591Z,1.99
2023-01-28T13:26:46.925Z,1.80
2023-01-28T13:29:13.763Z,2.06
2023-01-28T13:31:42.166Z,1.76
2023-01-28T13:34:14.964Z,1.90
2023-01-28T13:36:47.555Z,1.87
2023-01-28T13:39:14.373Z,1.96
2023-01-28T13:41:43.071Z,1.82
2023-01-28T13:44:19.182Z,1.88
2023-01-28T13:46:46.114Z,1.80
2023-01-28T13:49:15.970Z,1.67
2023-01-28T13:51:51.003Z,1.75
2023-01-28T13:54:20.979Z,1.79
2023-01-28T13:57:00.170Z,1.80
2023-01-28T13:59:26.995Z,1.75
2023-01-28T14:01:53.750Z,2.10
2023-01-28T14:04:32.581Z,2.06
2023-01-28T14:07:22.133Z,1.88
2023-01-28T14:10:07.742Z,1.85
2023-01-28T14:12:53.275Z,1.89
2023-01-28T14:15:25.184Z,1.92
2023-01-28T14:17:53.697Z,2.01
2023-01-28T14:20:22.534Z,2.03
2023-01-28T14:22:50.268Z,1.77
2023-01-28T14:25:24.770Z,1.75
2023-01-28T14:27:53.919Z,1.74
2023-01-28T14:30:56.378Z,1.56
2023-01-28T14:33:23.635Z,1.37
2023-01-28T14:35:50.452Z,1.63
2023-01-28T14:38:18.881Z,1.81
2023-01-28T14:40:45.810Z,1.67
2023-01-28T14:43:18.029Z,1.70
2023-01-28T14:45:50.829Z,1.60
2023-01-28T14:48:25.360Z,1.60
2023-01-28T14:50:55.267Z,1.82
2023-01-28T14:53:24.853Z,2.01
2023-01-28T14:56:10.258Z,1.59
2023-01-28T14:58:48.992Z,1.80
2023-01-28T15:01:29.004Z,1.61
2023-01-28T15:03:56.271Z,1.60
2023-01-28T15:06:35.245Z,1.59
2023-01-28T15:09:09.267Z,1.72
2023-01-28T15:11:38.613Z,1.87
2023-01-28T15:14:13.532Z,1.64
2023-01-28T15:16:40.419Z,1.71
2023-01-28T15:19:08.343Z,1.77
2023-01-28T15:21:35.687Z,1.68
2023-01-28T15:24:03.213Z,1.66
2023-01-28T15:26:33.831Z,1.66
2023-01-28T15:29:00.874Z,1.46
2023-01-28T15:31:29.904Z,1.26
2023-01-28T15:33:57.518Z,1.34
2023-01-28T15:36:24.768Z,1.21
2023-01-28T15:38:51.643Z,1.25
2023-01-28T15:41:20.605Z,1.28
2023-01-28T15:43:49.624Z,1.06
2023-01-28T15:46:16.626Z,1.21
2023-01-28T15:48:54.384Z,1.08
2023-01-28T15:51:25.911Z,0.95
2023-01-28T15:53:56.413Z,0.94
2023-01-28T15:56:27.674Z,0.80
2023-01-28T15:58:56.033Z,0.72
2023-01-28T16:01:23.360Z,0.64
2023-01-28T16:04:03.550Z,0.54
2023-01-28T16:06:41.705Z,0.36
2023-01-28T16:09:17.960Z,0.21
2023-01-28T16:11:44.935Z,0.06
2023-01-28T16:14:26.938Z,-0.01
2023-01-28T16:16:55.606Z,-0.10
2023-01-28T16:19:28.495Z,-0.10
2023-01-28T16:21:55.327Z,-0.20
2023-01-28T16:24:30.105Z,-0.26
2023-01-28T16:27:02.464Z,-0.27
2023-01-28T16:29:31.120Z,-0.31
2023-01-28T16:31:59.892Z,-0.37
2023-01-28T16:34:29.889Z,-0.47
2023-01-28T16:36:58.343Z,-0.50
2023-01-28T16:39:25.137Z,-0.50
2023-01-28T16:41:53.420Z,-0.50
2023-01-28T16:44:20.339Z,-0.55
2023-01-28T16:46:47.188Z,-0.57
2023-01-28T16:49:14.147Z,-0.60
2023-01-28T16:51:43.518Z,-0.57
2023-01-28T16:54:13.446Z,-0.56
2023-01-28T16:56:45.579Z,-0.47
2023-01-28T16:59:14.770Z,-0.30
2023-01-28T17:01:42.040Z,-0.23
2023-01-28T17:04:12.040Z,-0.13
2023-01-28T17:06:41.962Z,-0.07
2023-01-28T17:09:09.003Z,0.06
2023-01-28T17:11:38.167Z,0.08
2023-01-28T17:14:05.086Z,0.11
2023-01-28T17:16:31.973Z,0.21
2023-01-28T17:18:58.943Z,0.09
2023-01-28T17:21:25.730Z,0.01
2023-01-28T17:23:52.642Z,0.09
2023-01-28T17:26:19.545Z,0.06
2023-01-28T17:28:51.443Z,0.12
2023-01-28T17:31:18.658Z,0.07
2023-01-28T17:33:45.627Z,0.08
2023-01-28T17:36:12.522Z,0.02
2023-01-28T17:38:39.397Z,0.16
2023-01-28T17:41:07.421Z,0.10
2023-01-28T17:43:34.375Z,0.10
2023-01-28T17:46:01.788Z,0.08
2023-01-28T17:48:31.556Z,0.19
2023-01-28T17:50:58.508Z,0.13
2023-01-28T17:53:25.375Z,0.00
2023-01-28T17:55:52.278Z,0.05
2023-01-28T17:58:19.113Z,-0.09
2023-01-28T18:00:46.102Z,0.03
2023-01-28T18:03:13.362Z,-0.06
2023-01-28T18:05:41.447Z,-0.10
2023-01-28T18:08:08.588Z,-0.16
2023-01-28T18:10:35.527Z,-0.08
2023-01-28T18:13:02.419Z,-0.22
2023-01-28T18:15:29.253Z,-0.22
2023-01-28T18:17:56.070Z,-0.36
2023-01-28T18:20:22.954Z,-0.40
2023-01-28T18:22:49.751Z,-0.33
2023-01-28T18:25:17.994Z,-0.35
2023-01-28T18:27:45.227Z,-0.41
2023-01-28T18:30:14.039Z,-0.43
2023-01-28T18:32:41.000Z,-0.49
2023-01-28T18:35:08.103Z,-0.53
2023-01-28T18:37:34.919Z,-0.56
2023-01-28T18:40:01.940Z,-0.63
2023-01-28T18:42:28.794Z,-0.56
2023-01-28T18:44:55.602Z,-0.54
2023-01-28T18:47:22.391Z,-0.47
2023-01-28T18:49:49.244Z,-0.48
2023-01-28T18:52:16.091Z,-0.43
2023-01-28T18:54:42.961Z,-0.47
2023-01-28T18:57:09.759Z,-0.45
2023-01-28T18:59:36.574Z,-0.42
2023-01-28T19:02:03.427Z,-0.33
2023-01-28T19:04:30.337Z,-0.38
2023-01-28T19:06:57.507Z,-0.42
2023-01-28T19:09:24.343Z,-0.37
2023-01-28T19:11:51.763Z,-0.51
2023-01-28T19:14:20.775Z,-0.49
2023-01-28T19:16:47.584Z,-0.46
2023-01-28T19:19:14.417Z,-0.44
2023-01-28T19:21:41.264Z,-0.44
2023-01-28T19:24:10.330Z,-0.31
2023-01-28T19:26:38.022Z,-0.26
2023-01-28T19:29:09.332Z,-0.23
2023-01-28T19:31:36.998Z,-0.23
2023-01-28T19:34:04.485Z,-0.29
2023-01-28T19:36:32.373Z,-0.31
2023-01-28T19:39:00.096Z,-0.25
2023-01-28T19:41:28.039Z,-0.24
2023-01-28T19:43:55.478Z,-0.25
2023-01-28T19:46:22.336Z,-0.32
2023-01-28T19:48:49.241Z,-0.37
2023-01-28T19:51:16.632Z,-0.41
2023-01-28T19:53:44.399Z,-0.41
2023-01-28T19:56:15.530Z,-0.41
2023-01-28T19:58:43.056Z,-0.43
2023-01-28T20:01:09.870Z,-0.48
2023-01-28T20:03:37.003Z,-0.48
2023-01-28T20:06:04.901Z,-0.46
2023-01-28T20:08:31.741Z,-0.51
2023-01-28T20:11:02.701Z,-0.46
2023-01-28T20:13:29.935Z,-0.47
2023-01-28T20:15:56.787Z,-0.47
2023-01-28T20:18:23.679Z,-0.41
2023-01-28T20:20:54.149Z,-0.44
2023-01-28T20:23:21.264Z,-0.41
2023-01-28T20:25:51.601Z,-0.40
2023-01-28T20:28:18.421Z,-0.42
2023-01-28T20:30:45.508Z,-0.47
2023-01-28T20:33:12.536Z,-0.43
2023-01-28T20:35:39.597Z,-0.31
2023-01-28T20:38:07.814Z,-1.20
2023-01-28T20:40:35.742Z,-0.36
2023-01-28T20:43:02.706Z,-0.41
2023-01-28T20:45:31.201Z,-0.35
2023-01-28T20:47:57.982Z,-0.44
2023-01-28T20:50:25.170Z,-0.38
2023-01-28T20:52:52.006Z,-0.44
2023-01-28T20:55:18.857Z,-0.48
2023-01-28T20:57:45.909Z,-0.37
2023-01-28T21:00:13.236Z,-0.35
2023-01-28T21:02:40.465Z,-0.41
2023-01-28T21:05:07.418Z,-0.47
2023-01-28T21:07:34.539Z,-0.50
2023-01-28T21:10:02.544Z,-0.50
2023-01-28T21:12:30.250Z,-0.36
2023-01-28T21:14:57.258Z,-0.63
2023-01-28T21:17:24.929Z,-0.55
2023-01-28T21:19:51.743Z,-0.71
2023-01-28T21:22:20.039Z,-0.86
2023-01-28T21:24:48.927Z,-0.89
2023-01-28T21:27:15.878Z,-1.00
2023-01-28T21:29:42.758Z,-1.12
2023-01-28T21:32:09.668Z,-1.23
2023-01-28T21:34:36.503Z,-1.23
2023-01-28T21:37:03.326Z,-1.31
2023-01-28T21:39:30.141Z,-1.39
2023-01-28T21:41:56.983Z,-1.46
2023-01-28T21:44:23.822Z,-1.51
2023-01-28T21:46:50.621Z,-1.60
2023-01-28T21:49:17.424Z,-1.65
2023-01-28T21:51:47.144Z,-1.70
2023-01-28T21:54:15.592Z,-1.73
2023-01-28T21:56:43.703Z,-1.72
2023-01-28T21:59:28.914Z,-1.75
2023-01-28T22:01:55.770Z,-1.83
2023-01-28T22:04:25.541Z,-1.85
2023-01-28T22:06:52.909Z,-1.88
2023-01-28T22:09:19.773Z,-1.88
2023-01-28T22:11:46.575Z,-1.95
2023-01-28T22:14:13.665Z,-1.97
2023-01-28T22:16:40.812Z,-1.98
2023-01-28T22:19:07.683Z,-2.01
2023-01-28T22:21:40.865Z,-2.04
2023-01-28T22:24:12.343Z,-2.07
2023-01-28T22:26:39.895Z,-2.10
2023-01-28T22:29:07.455Z,-2.15
2023-01-28T22:31:34.258Z,-2.17
2023-01-28T22:34:01.123Z,-2.15
2023-01-28T22:36:27.923Z,-2.17
2023-01-28T22:38:54.787Z,-2.13
2023-01-28T22:41:24.627Z,-2.14
2023-01-28T22:43:52.071Z,-2.14
2023-01-28T22:46:20.915Z,-2.21
2023-01-28T22:48:48.284Z,-2.23
2023-01-28T22:51:22.428Z,-2.28
2023-01-28T22:53:49.641Z,-2.34
2023-01-28T22:56:17.254Z,-2.39
2023-01-28T22:58:44.349Z,-2.43
2023-01-28T23:01:15.301Z,-2.41
2023-01-28T23:03:46.899Z,-2.42
2023-01-28T23:06:15.429Z,-2.47
2023-01-28T23:08:42.411Z,-2.48
2023-01-28T23:11:15.092Z,-2.46
2023-01-28T23:14:01.833Z,-2.49
2023-01-28T23:16:49.196Z,-2.50
2023-01-28T23:19:35.044Z,-2.51
2023-01-28T23:22:20.702Z,-2.57
2023-01-28T23:24:47.603Z,-2.62
2023-01-28T23:27:14.421Z,-2.64
2023-01-28T23:29:41.659Z,-2.70
2023-01-28T23:32:09.785Z,-2.73
2023-01-28T23:34:37.777Z,-2.72
2023-01-28T23:37:06.194Z,-2.72
2023-01-28T23:39:33.976Z,-2.71
2023-01-28T23:42:10.151Z,-2.75
2023-01-28T23:44:36.973Z,-2.85
2023-01-28T23:47:03.799Z,-2.88
2023-01-28T23:49:30.693Z,-2.90
2023-01-28T23:52:00.595Z,-2.89
2023-01-28T23:54:27.542Z,-2.89
2023-01-28T23:56:54.589Z,-2.93
2023-01-28T23:59:21.523Z,-3.01
